createdAt,value
2022-10-15T00:00:10.020Z,14.50
2022-10-15T00:00:32.227Z,14.77
2022-10-15T00:00:59.192Z,14.43
2022-10-15T00:01:22.133Z,14.52
2022-10-15T00:01:44.166Z,14.57
2022-10-15T00:02:09.164Z,15.25
2022-10-15T00:02:34.533Z,14.82
2022-10-15T00:03:04.390Z,15.00
2022-10-15T00:03:29.706Z,14.25
2022-10-15T00:04:23.514Z,14.35
2022-10-15T00:04:48.401Z,14.63
2022-10-15T00:05:10.780Z,15.43
2022-10-15T00:05:32.975Z,14.25
2022-10-15T00:05:55.558Z,14.45
2022-10-15T00:06:19.812Z,14.52
2022-10-15T00:06:41.973Z,14.38
2022-10-15T00:07:04.083Z,14.20
2022-10-15T00:07:26.376Z,14.52
2022-10-15T00:07:49.282Z,14.52
2022-10-15T00:08:12.478Z,13.77
2022-10-15T00:08:34.674Z,14.40
2022-10-15T00:08:58.539Z,15.13
2022-10-15T00:09:20.392Z,14.40
2022-10-15T00:09:42.295Z,14.00
2022-10-15T00:10:04.532Z,14.20
2022-10-15T00:10:26.922Z,14.38
2022-10-15T00:10:48.861Z,14.27
2022-10-15T00:11:19.577Z,14.33
2022-10-15T00:11:41.383Z,14.32
2022-10-15T00:12:03.249Z,14.68
2022-10-15T00:12:25.157Z,14.27
2022-10-15T00:12:57.392Z,14.50
2022-10-15T00:13:19.642Z,14.57
2022-10-15T00:13:43.905Z,14.73
2022-10-15T00:14:06.949Z,14.43
2022-10-15T00:14:31.886Z,14.63
2022-10-15T00:14:56.118Z,14.25
2022-10-15T00:15:19.714Z,14.25
2022-10-15T00:15:41.515Z,13.98
2022-10-15T00:16:08.556Z,14.20
2022-10-15T00:16:32.951Z,13.88
2022-10-15T00:16:55.456Z,14.55
2022-10-15T00:17:19.601Z,14.27
2022-10-15T00:17:45.212Z,14.00
2022-10-15T00:18:09.193Z,14.18
2022-10-15T00:18:31.370Z,14.07
2022-10-15T00:18:57.480Z,14.65
2022-10-15T00:19:21.056Z,14.18
2022-10-15T00:19:42.891Z,14.00
2022-10-15T00:20:07.958Z,14.13
2022-10-15T00:20:30.335Z,13.95
2022-10-15T00:20:53.519Z,14.40
2022-10-15T00:21:18.099Z,13.85
2022-10-15T00:21:40.405Z,13.98
2022-10-15T00:22:24.570Z,13.80
2022-10-15T00:22:46.722Z,14.13
2022-10-15T00:23:09.594Z,14.35
2022-10-15T00:23:34.836Z,14.27
2022-10-15T00:23:57.285Z,14.40
2022-10-15T00:24:19.646Z,14.98
2022-10-15T00:24:43.079Z,14.35
2022-10-15T00:25:06.447Z,14.15
2022-10-15T00:25:31.801Z,14.38
2022-10-15T00:26:09.592Z,14.10
2022-10-15T00:26:32.214Z,14.38
2022-10-15T00:26:54.464Z,13.63
2022-10-15T00:27:17.283Z,14.10
2022-10-15T00:27:43.321Z,13.98
2022-10-15T00:28:05.392Z,13.88
2022-10-15T00:28:31.855Z,14.13
2022-10-15T00:28:58.933Z,13.68
2022-10-15T00:29:21.000Z,14.05
2022-10-15T00:29:43.033Z,14.60
2022-10-15T00:30:06.354Z,14.27
2022-10-15T00:30:28.698Z,14.32
2022-10-15T00:30:51.045Z,14.38
2022-10-15T00:31:16.907Z,14.30
2022-10-15T00:31:38.897Z,14.70
2022-10-15T00:32:02.257Z,13.77
2022-10-15T00:32:25.354Z,13.57
2022-10-15T00:32:47.531Z,13.95
2022-10-15T00:33:09.550Z,13.90
2022-10-15T00:33:33.767Z,13.73
2022-10-15T00:33:58.398Z,13.73
2022-10-15T00:34:20.438Z,13.68
2022-10-15T00:34:42.314Z,14.05
2022-10-15T00:35:04.608Z,14.20
2022-10-15T00:35:26.596Z,14.15
2022-10-15T00:35:58.432Z,14.27
2022-10-15T00:36:22.888Z,13.68
2022-10-15T00:36:51.585Z,14.15
2022-10-15T00:37:17.613Z,13.73
2022-10-15T00:37:44.332Z,13.55
2022-10-15T00:38:06.139Z,13.73
2022-10-15T00:38:30.618Z,13.90
2022-10-15T00:38:53.488Z,13.95
2022-10-15T00:39:15.447Z,14.30
2022-10-15T00:39:38.336Z,13.80
2022-10-15T00:40:00.329Z,13.35
2022-10-15T00:40:23.077Z,13.35
2022-10-15T00:40:45.719Z,13.93
2022-10-15T00:41:13.059Z,13.38
2022-10-15T00:41:40.269Z,13.48
2022-10-15T00:42:02.676Z,13.48
2022-10-15T00:42:24.967Z,13.60
2022-10-15T00:42:47.653Z,13.80
2022-10-15T00:43:13.080Z,13.85
2022-10-15T00:43:50.158Z,13.93
2022-10-15T00:44:21.623Z,13.73
2022-10-15T00:44:51.272Z,13.83
2022-10-15T00:45:20.938Z,12.98
2022-10-15T00:45:46.287Z,13.90
2022-10-15T00:46:22.519Z,13.65
2022-10-15T00:46:47.411Z,13.80
2022-10-15T00:47:35.245Z,14.10
2022-10-15T00:47:57.657Z,13.45
2022-10-15T00:48:19.662Z,13.52
2022-10-15T00:48:41.904Z,13.75
2022-10-15T00:49:34.943Z,13.43
2022-10-15T00:50:05.730Z,13.63
2022-10-15T00:50:28.182Z,13.40
2022-10-15T00:50:50.097Z,13.27
2022-10-15T00:51:22.970Z,13.93
2022-10-15T00:51:54.605Z,13.52
2022-10-15T00:52:43.905Z,14.30
2022-10-15T00:53:11.487Z,13.77
2022-10-15T00:53:33.532Z,13.10
2022-10-15T00:54:01.141Z,13.60
2022-10-15T00:54:28.049Z,13.82
2022-10-15T00:54:55.590Z,13.75
2022-10-15T00:55:27.341Z,13.02
2022-10-15T00:55:51.610Z,13.85
2022-10-15T00:56:16.024Z,13.88
2022-10-15T00:56:40.117Z,13.20
2022-10-15T00:57:02.104Z,13.05
2022-10-15T00:57:25.148Z,13.63
2022-10-15T00:57:49.924Z,13.70
2022-10-15T00:58:16.680Z,13.25
2022-10-15T00:58:41.841Z,13.85
2022-10-15T00:59:05.310Z,13.40
2022-10-15T00:59:31.967Z,13.63
2022-10-15T01:00:00.757Z,13.23
2022-10-15T01:00:25.753Z,13.35
2022-10-15T01:00:47.639Z,13.15
2022-10-15T01:01:12.610Z,13.93
2022-10-15T01:01:34.625Z,14.07
2022-10-15T01:02:01.976Z,13.98
2022-10-15T01:02:26.789Z,13.50
2022-10-15T01:02:50.952Z,14.23
2022-10-15T01:03:13.082Z,13.90
2022-10-15T01:03:36.089Z,13.40
2022-10-15T01:03:58.415Z,13.55
2022-10-15T01:04:21.233Z,13.00
2022-10-15T01:04:46.236Z,13.35
2022-10-15T01:05:10.259Z,13.63
2022-10-15T01:05:35.025Z,14.10
2022-10-15T01:05:58.712Z,13.50
2022-10-15T01:06:20.546Z,13.30
2022-10-15T01:06:45.489Z,13.45
2022-10-15T01:07:08.227Z,13.00
2022-10-15T01:07:30.332Z,13.40
2022-10-15T01:07:52.586Z,13.10
2022-10-15T01:08:14.426Z,13.25
2022-10-15T01:08:39.156Z,13.07
2022-10-15T01:09:01.323Z,13.10
2022-10-15T01:09:23.506Z,14.10
2022-10-15T01:09:47.730Z,13.85
2022-10-15T01:10:12.484Z,13.23
2022-10-15T01:10:52.480Z,13.98
2022-10-15T01:12:01.608Z,13.35
2022-10-15T01:12:49.824Z,13.65
2022-10-15T01:13:15.229Z,13.40
2022-10-15T01:13:46.667Z,13.82
2022-10-15T01:14:27.763Z,12.88
2022-10-15T01:15:05.104Z,13.57
2022-10-15T01:15:43.134Z,12.88
2022-10-15T01:16:33.639Z,13.38
2022-10-15T01:17:05.416Z,13.20
2022-10-15T01:17:53.418Z,12.57
2022-10-15T01:18:22.605Z,13.00
2022-10-15T01:19:13.866Z,13.50
2022-10-15T01:19:56.949Z,12.90
2022-10-15T01:21:04.625Z,13.27
2022-10-15T01:21:34.108Z,13.35
2022-10-15T01:22:16.461Z,13.73
2022-10-15T01:23:00.603Z,12.90
2022-10-15T01:23:36.813Z,13.60
2022-10-15T01:24:36.112Z,12.80
2022-10-15T01:25:00.774Z,13.27
2022-10-15T01:25:54.111Z,13.30
2022-10-15T01:26:45.190Z,12.52
2022-10-15T01:27:25.221Z,12.70
2022-10-15T01:28:10.316Z,12.82
2022-10-15T01:29:03.378Z,13.30
2022-10-15T01:29:45.611Z,13.00
2022-10-15T01:30:31.693Z,12.75
2022-10-15T01:31:03.040Z,13.40
2022-10-15T01:31:48.688Z,12.88
2022-10-15T01:32:28.970Z,13.20
2022-10-15T01:33:12.801Z,12.88
2022-10-15T01:33:43.093Z,13.27
2022-10-15T01:35:01.827Z,13.68
2022-10-15T01:35:45.576Z,13.00
2022-10-15T01:36:35.645Z,13.25
2022-10-15T01:37:14.376Z,12.43
2022-10-15T01:37:42.432Z,12.90
2022-10-15T01:38:35.257Z,12.25
2022-10-15T01:39:04.924Z,13.25
2022-10-15T01:39:40.239Z,13.68
2022-10-15T01:40:08.547Z,13.13
2022-10-15T01:40:42.148Z,12.85
2022-10-15T01:41:12.794Z,13.85
2022-10-15T01:41:40.812Z,12.82
2022-10-15T01:42:13.698Z,13.23
2022-10-15T01:42:53.803Z,12.70
2022-10-15T01:43:32.696Z,13.13
2022-10-15T01:44:05.639Z,12.90
2022-10-15T01:44:41.352Z,13.30
2022-10-15T01:45:10.189Z,12.90
2022-10-15T01:45:44.736Z,12.10
2022-10-15T01:46:14.672Z,12.43
2022-10-15T01:46:46.824Z,13.07
2022-10-15T01:47:32.341Z,13.20
2022-10-15T01:48:02.279Z,13.07
2022-10-15T01:48:28.400Z,13.02
2022-10-15T01:48:58.615Z,12.73
2022-10-15T01:49:28.741Z,12.98
2022-10-15T01:49:56.599Z,12.77
2022-10-15T01:50:23.812Z,13.65
2022-10-15T01:50:49.778Z,13.27
2022-10-15T01:51:14.856Z,12.98
2022-10-15T01:51:43.251Z,13.20
2022-10-15T01:52:18.668Z,13.02
2022-10-15T01:52:42.399Z,13.23
2022-10-15T01:53:08.342Z,12.98
2022-10-15T01:53:35.445Z,13.10
2022-10-15T01:54:00.994Z,13.27
2022-10-15T01:54:26.264Z,13.27
2022-10-15T01:54:52.508Z,12.85
2022-10-15T01:55:16.986Z,13.32
2022-10-15T01:55:46.026Z,13.07
2022-10-15T01:56:15.741Z,13.05
2022-10-15T01:56:38.870Z,13.02
2022-10-15T01:57:04.542Z,13.48
2022-10-15T01:57:32.725Z,13.60
2022-10-15T01:57:59.695Z,13.27
2022-10-15T01:58:23.392Z,12.85
2022-10-15T01:58:49.283Z,12.60
2022-10-15T01:59:14.211Z,12.68
2022-10-15T01:59:38.820Z,12.60
2022-10-15T02:00:05.560Z,13.15
2022-10-15T02:00:27.551Z,13.00
2022-10-15T02:00:53.443Z,12.95
2022-10-15T02:01:16.536Z,12.77
2022-10-15T02:01:45.009Z,12.73
2022-10-15T02:02:07.065Z,13.38
2022-10-15T02:02:28.922Z,13.02
2022-10-15T02:02:50.779Z,12.75
2022-10-15T02:03:18.104Z,12.95
2022-10-15T02:03:48.624Z,12.88
2022-10-15T02:04:28.212Z,12.60
2022-10-15T02:04:50.297Z,12.75
2022-10-15T02:05:25.661Z,13.00
2022-10-15T02:05:57.007Z,13.13
2022-10-15T02:06:29.654Z,13.40
2022-10-15T02:07:04.078Z,12.82
2022-10-15T02:08:05.809Z,12.65
2022-10-15T02:09:05.882Z,12.60
2022-10-15T02:09:42.096Z,12.93
2022-10-15T02:10:09.836Z,12.98
2022-10-15T02:11:00.150Z,12.30
2022-10-15T02:11:22.462Z,12.88
2022-10-15T02:11:55.472Z,13.35
2022-10-15T02:12:24.334Z,13.18
2022-10-15T02:13:24.524Z,12.38
2022-10-15T02:14:10.002Z,12.93
2022-10-15T02:15:03.438Z,12.65
2022-10-15T02:15:45.031Z,12.98
2022-10-15T02:16:57.795Z,12.68
2022-10-15T02:17:28.744Z,12.70
2022-10-15T02:18:25.770Z,13.02
2022-10-15T02:19:13.301Z,12.95
2022-10-15T02:19:45.814Z,13.02
2022-10-15T02:20:37.421Z,12.73
2022-10-15T02:21:22.560Z,12.85
2022-10-15T02:22:23.029Z,12.68
2022-10-15T02:23:05.041Z,12.25
2022-10-15T02:23:49.002Z,12.48
2022-10-15T02:24:24.403Z,12.10
2022-10-15T02:25:03.111Z,12.15
2022-10-15T02:25:27.003Z,13.05
2022-10-15T02:25:53.743Z,12.32
2022-10-15T02:26:20.189Z,12.43
2022-10-15T02:26:43.717Z,12.60
2022-10-15T02:27:08.560Z,12.05
2022-10-15T02:27:33.602Z,11.90
2022-10-15T02:27:59.914Z,11.98
2022-10-15T02:28:27.398Z,12.13
2022-10-15T02:28:55.618Z,12.13
2022-10-15T02:29:25.287Z,12.10
2022-10-15T02:29:55.205Z,11.68
2022-10-15T02:30:18.430Z,12.23
2022-10-15T02:30:44.760Z,11.65
2022-10-15T02:31:12.150Z,12.20
2022-10-15T02:31:44.918Z,12.43
2022-10-15T02:32:08.521Z,12.43
2022-10-15T02:32:35.555Z,12.63
2022-10-15T02:33:00.345Z,12.05
2022-10-15T02:33:28.102Z,12.35
2022-10-15T02:33:54.651Z,12.32
2022-10-15T02:34:22.885Z,12.70
2022-10-15T02:34:47.445Z,12.32
2022-10-15T02:35:20.336Z,11.90
2022-10-15T02:35:48.148Z,12.43
2022-10-15T02:36:11.527Z,11.90
2022-10-15T02:36:33.808Z,11.68
2022-10-15T02:36:58.385Z,12.38
2022-10-15T02:37:26.699Z,12.07
2022-10-15T02:37:51.477Z,11.95
2022-10-15T02:38:20.013Z,12.13
2022-10-15T02:38:48.925Z,12.32
2022-10-15T02:39:15.001Z,12.35
2022-10-15T02:39:42.414Z,11.77
2022-10-15T02:40:06.418Z,11.90
2022-10-15T02:40:38.980Z,11.70
2022-10-15T02:41:02.293Z,12.02
2022-10-15T02:41:29.378Z,12.07
2022-10-15T02:41:59.136Z,12.02
2022-10-15T02:42:21.721Z,12.13
2022-10-15T02:42:44.585Z,12.18
2022-10-15T02:43:11.574Z,12.13
2022-10-15T02:43:35.598Z,12.40
2022-10-15T02:43:57.447Z,11.82
2022-10-15T02:44:19.530Z,11.55
2022-10-15T02:44:41.805Z,12.18
2022-10-15T02:45:04.213Z,12.80
2022-10-15T02:45:26.321Z,11.57
2022-10-15T02:45:49.594Z,11.95
2022-10-15T02:46:16.199Z,11.60
2022-10-15T02:46:38.125Z,12.23
2022-10-15T02:47:00.301Z,11.70
2022-10-15T02:47:22.314Z,11.10
2022-10-15T02:47:44.329Z,11.63
2022-10-15T02:48:09.717Z,11.48
2022-10-15T02:48:32.669Z,12.00
2022-10-15T02:48:54.653Z,12.18
2022-10-15T02:49:16.470Z,11.88
2022-10-15T02:49:39.619Z,11.82
2022-10-15T02:50:02.237Z,12.60
2022-10-15T02:50:24.702Z,12.07
2022-10-15T02:50:47.161Z,11.23
2022-10-15T02:51:14.473Z,11.23
2022-10-15T02:51:38.045Z,11.13
2022-10-15T02:52:00.478Z,12.13
2022-10-15T02:52:26.916Z,11.35
2022-10-15T02:52:51.711Z,11.50
2022-10-15T02:53:13.511Z,12.07
2022-10-15T02:53:37.901Z,11.88
2022-10-15T02:54:01.612Z,11.48
2022-10-15T02:54:23.452Z,11.55
2022-10-15T02:54:47.802Z,11.20
2022-10-15T02:55:09.946Z,11.63
2022-10-15T02:55:33.118Z,11.35
2022-10-15T02:55:57.030Z,11.15
2022-10-15T02:56:18.980Z,11.05
2022-10-15T02:56:41.008Z,10.98
2022-10-15T02:57:05.495Z,11.40
2022-10-15T02:57:30.947Z,11.00
2022-10-15T02:57:56.009Z,11.50
2022-10-15T02:58:17.891Z,11.52
2022-10-15T02:58:47.045Z,11.82
2022-10-15T02:59:08.877Z,11.82
2022-10-15T02:59:32.025Z,11.63
2022-10-15T02:59:53.879Z,12.00
2022-10-15T03:00:23.868Z,10.82
2022-10-15T03:00:49.126Z,11.07
2022-10-15T03:01:13.212Z,11.75
2022-10-15T03:01:40.395Z,11.43
2022-10-15T03:02:03.321Z,11.57
2022-10-15T03:02:25.173Z,11.32
2022-10-15T03:02:50.023Z,11.18
2022-10-15T03:03:12.066Z,11.15
2022-10-15T03:03:34.363Z,10.82
2022-10-15T03:03:58.909Z,11.02
2022-10-15T03:04:20.787Z,11.70
2022-10-15T03:04:43.333Z,11.38
2022-10-15T03:05:05.904Z,11.13
2022-10-15T03:05:30.978Z,11.43
2022-10-15T03:05:53.236Z,11.45
2022-10-15T03:06:16.652Z,11.07
2022-10-15T03:06:43.888Z,11.13
2022-10-15T03:07:08.461Z,11.30
2022-10-15T03:07:30.854Z,10.95
2022-10-15T03:07:52.898Z,11.20
2022-10-15T03:08:15.020Z,11.13
2022-10-15T03:08:37.063Z,11.30
2022-10-15T03:08:59.577Z,10.75
2022-10-15T03:09:21.576Z,11.02
2022-10-15T03:09:45.945Z,11.38
2022-10-15T03:10:08.847Z,10.93
2022-10-15T03:10:30.641Z,10.88
2022-10-15T03:10:52.600Z,11.05
2022-10-15T03:11:14.629Z,11.30
2022-10-15T03:11:38.787Z,11.20
2022-10-15T03:12:02.996Z,11.05
2022-10-15T03:12:26.154Z,10.07
2022-10-15T03:12:53.773Z,10.80
2022-10-15T03:13:15.783Z,10.98
2022-10-15T03:13:39.492Z,10.70
2022-10-15T03:14:01.489Z,11.02
2022-10-15T03:14:23.312Z,11.13
2022-10-15T03:14:46.872Z,11.10
2022-10-15T03:15:09.250Z,11.25
2022-10-15T03:15:31.383Z,11.73
2022-10-15T03:15:53.917Z,10.88
2022-10-15T03:16:18.219Z,10.65
2022-10-15T03:16:40.727Z,10.73
2022-10-15T03:17:02.942Z,10.80
2022-10-15T03:17:27.532Z,10.30
2022-10-15T03:17:49.530Z,10.93
2022-10-15T03:18:14.287Z,10.55
2022-10-15T03:18:40.684Z,10.60
2022-10-15T03:19:03.178Z,10.98
2022-10-15T03:19:30.110Z,11.70
2022-10-15T03:19:56.730Z,10.85
2022-10-15T03:20:18.820Z,11.18
2022-10-15T03:20:41.343Z,10.85
2022-10-15T03:21:06.373Z,10.38
2022-10-15T03:21:30.996Z,10.38
2022-10-15T03:21:55.272Z,10.77
2022-10-15T03:22:17.084Z,10.30
2022-10-15T03:22:40.180Z,10.13
2022-10-15T03:23:03.307Z,10.17
2022-10-15T03:23:25.780Z,10.73
2022-10-15T03:23:48.113Z,10.80
2022-10-15T03:24:13.892Z,10.63
2022-10-15T03:24:35.921Z,10.55
2022-10-15T03:24:58.135Z,10.52
2022-10-15T03:25:20.245Z,10.50
2022-10-15T03:25:44.224Z,10.80
2022-10-15T03:26:07.667Z,10.50
2022-10-15T03:26:31.607Z,9.95
2022-10-15T03:26:53.894Z,10.25
2022-10-15T03:27:15.808Z,10.45
2022-10-15T03:27:38.803Z,10.55
2022-10-15T03:28:01.698Z,10.45
2022-10-15T03:28:28.783Z,10.68
2022-10-15T03:28:51.891Z,10.95
2022-10-15T03:29:15.084Z,10.57
2022-10-15T03:29:37.045Z,10.65
2022-10-15T03:29:58.901Z,10.30
2022-10-15T03:30:21.047Z,10.45
2022-10-15T03:30:43.504Z,11.20
2022-10-15T03:31:07.274Z,11.15
2022-10-15T03:31:31.339Z,10.90
2022-10-15T03:32:03.279Z,11.02
2022-10-15T03:32:25.455Z,11.02
2022-10-15T03:32:48.341Z,10.82
2022-10-15T03:33:10.422Z,11.02
2022-10-15T03:33:32.962Z,10.30
2022-10-15T03:33:55.383Z,10.18
2022-10-15T03:34:19.805Z,10.50
2022-10-15T03:34:47.751Z,10.75
2022-10-15T03:35:12.889Z,10.50
2022-10-15T03:35:34.918Z,10.45
2022-10-15T03:35:57.575Z,10.70
2022-10-15T03:36:19.445Z,10.57
2022-10-15T03:36:44.099Z,10.63
2022-10-15T03:37:06.421Z,10.63
2022-10-15T03:37:28.239Z,10.52
2022-10-15T03:37:53.814Z,10.60
2022-10-15T03:38:15.643Z,10.63
2022-10-15T03:38:42.767Z,10.50
2022-10-15T03:39:07.053Z,10.23
2022-10-15T03:39:29.254Z,10.30
2022-10-15T03:39:53.486Z,10.50
2022-10-15T03:40:17.964Z,10.50
2022-10-15T03:40:40.640Z,10.68
2022-10-15T03:41:05.449Z,11.07
2022-10-15T03:41:28.206Z,10.15
2022-10-15T03:42:03.508Z,10.20
2022-10-15T03:42:27.589Z,10.75
2022-10-15T03:42:53.127Z,10.25
2022-10-15T03:43:17.965Z,10.98
2022-10-15T03:43:42.651Z,10.55
2022-10-15T03:44:07.317Z,10.07
2022-10-15T03:44:31.865Z,10.70
2022-10-15T03:44:56.958Z,10.55
2022-10-15T03:45:20.231Z,10.27
2022-10-15T03:45:43.176Z,10.68
2022-10-15T03:46:08.208Z,10.70
2022-10-15T03:46:31.575Z,10.82
2022-10-15T03:46:55.827Z,10.48
2022-10-15T03:47:17.760Z,10.20
2022-10-15T03:47:39.554Z,9.93
2022-10-15T03:48:01.425Z,10.45
2022-10-15T03:48:25.493Z,10.93
2022-10-15T03:48:54.136Z,11.20
2022-10-15T03:49:21.276Z,10.52
2022-10-15T03:49:45.543Z,10.43
2022-10-15T03:50:08.833Z,10.55
2022-10-15T03:50:31.116Z,10.43
2022-10-15T03:50:56.375Z,10.68
2022-10-15T03:51:24.618Z,10.63
2022-10-15T03:51:48.812Z,10.50
2022-10-15T03:52:11.167Z,10.27
2022-10-15T03:52:33.364Z,10.57
2022-10-15T03:52:55.596Z,10.60
2022-10-15T03:53:17.660Z,10.45
2022-10-15T03:53:39.537Z,9.93
2022-10-15T03:54:01.427Z,9.82
2022-10-15T03:54:24.901Z,10.15
2022-10-15T03:54:47.136Z,10.18
2022-10-15T03:55:10.438Z,10.32
2022-10-15T03:55:33.523Z,10.88
2022-10-15T03:55:55.383Z,10.70
2022-10-15T03:56:18.337Z,10.15
2022-10-15T03:56:40.178Z,10.30
2022-10-15T03:57:02.015Z,10.38
2022-10-15T03:57:24.392Z,10.10
2022-10-15T03:57:48.898Z,10.27
2022-10-15T03:58:10.844Z,10.20
2022-10-15T03:58:34.658Z,10.38
2022-10-15T03:58:56.615Z,10.68
2022-10-15T03:59:18.479Z,9.90
2022-10-15T03:59:41.242Z,9.90
2022-10-15T04:00:05.796Z,10.05
2022-10-15T04:00:28.489Z,10.60
2022-10-15T04:00:50.439Z,10.73
2022-10-15T04:01:21.657Z,10.30
2022-10-15T04:01:47.975Z,10.20
2022-10-15T04:02:11.117Z,9.82
2022-10-15T04:02:36.181Z,10.18
2022-10-15T04:02:58.253Z,10.38
2022-10-15T04:03:22.917Z,9.82
2022-10-15T04:03:44.915Z,10.00
2022-10-15T04:04:17.425Z,9.85
2022-10-15T04:04:43.157Z,10.27
2022-10-15T04:05:10.566Z,10.32
2022-10-15T04:05:34.776Z,10.57
2022-10-15T04:06:01.339Z,10.68
2022-10-15T04:06:24.592Z,10.57
2022-10-15T04:06:48.018Z,10.32
2022-10-15T04:07:14.979Z,10.50
2022-10-15T04:07:39.908Z,10.20
2022-10-15T04:08:04.818Z,9.70
2022-10-15T04:08:28.829Z,9.88
2022-10-15T04:09:15.499Z,10.00
2022-10-15T04:09:37.824Z,10.20
2022-10-15T04:10:02.093Z,10.40
2022-10-15T04:10:27.261Z,10.77
2022-10-15T04:10:51.042Z,10.13
2022-10-15T04:11:16.209Z,10.25
2022-10-15T04:11:40.807Z,10.20
2022-10-15T04:12:04.960Z,10.00
2022-10-15T04:12:29.358Z,9.95
2022-10-15T04:12:51.350Z,10.40
2022-10-15T04:13:13.197Z,10.57
2022-10-15T04:13:35.627Z,9.85
2022-10-15T04:13:58.113Z,9.80
2022-10-15T04:14:20.601Z,10.40
2022-10-15T04:14:42.600Z,10.57
2022-10-15T04:15:06.753Z,10.18
2022-10-15T04:15:28.604Z,10.48
2022-10-15T04:15:51.608Z,10.30
2022-10-15T04:16:22.474Z,10.48
2022-10-15T04:16:56.292Z,9.95
2022-10-15T04:17:18.434Z,10.00
2022-10-15T04:17:40.229Z,9.98
2022-10-15T04:18:03.816Z,9.80
2022-10-15T04:18:26.118Z,10.05
2022-10-15T04:18:50.870Z,10.60
2022-10-15T04:19:13.158Z,12.52
2022-10-15T04:19:36.633Z,13.83
2022-10-15T04:20:00.039Z,12.40
2022-10-15T04:20:23.048Z,11.70
2022-10-15T04:20:50.373Z,13.52
2022-10-15T04:21:15.122Z,12.07
2022-10-15T04:21:37.031Z,12.20
2022-10-15T04:21:59.154Z,11.10
2022-10-15T04:22:21.253Z,22.60
2022-10-15T04:22:44.031Z,58.30
2022-10-15T04:23:06.027Z,26.77
2022-10-15T04:23:31.142Z,16.80
2022-10-15T04:23:53.197Z,13.93
2022-10-15T04:24:16.285Z,13.38
2022-10-15T04:24:38.245Z,13.93
2022-10-15T04:25:00.077Z,15.57
2022-10-15T04:25:21.929Z,18.48
2022-10-15T04:25:47.332Z,17.60
2022-10-15T04:26:09.280Z,21.65
2022-10-15T04:26:31.180Z,20.80
2022-10-15T04:26:53.543Z,16.30
2022-10-15T04:27:16.586Z,11.55
2022-10-15T04:27:41.238Z,10.18
2022-10-15T04:28:03.305Z,16.30
2022-10-15T04:28:29.587Z,23.52
2022-10-15T04:28:51.800Z,12.57
2022-10-15T04:29:15.965Z,9.80
2022-10-15T04:29:41.514Z,9.35
2022-10-15T04:30:04.584Z,15.05
2022-10-15T04:30:26.927Z,27.67
2022-10-15T04:30:49.357Z,15.90
2022-10-15T04:31:11.915Z,45.28
2022-10-15T04:31:34.975Z,98.43
2022-10-15T04:31:58.249Z,27.60
2022-10-15T04:32:25.727Z,14.98
2022-10-15T04:32:48.832Z,76.05
2022-10-15T04:33:13.685Z,53.85
2022-10-15T04:33:36.404Z,55.13
2022-10-15T04:33:59.458Z,21.75
2022-10-15T04:34:21.374Z,12.35
2022-10-15T04:34:43.706Z,10.85
2022-10-15T04:35:06.708Z,10.32
2022-10-15T04:35:35.103Z,11.40
2022-10-15T04:36:08.699Z,11.63
2022-10-15T04:36:36.555Z,38.28
2022-10-15T04:36:58.586Z,49.10
2022-10-15T04:37:21.249Z,57.90
2022-10-15T04:37:43.517Z,59.42
2022-10-15T04:38:05.583Z,21.33
2022-10-15T04:38:29.283Z,11.10
2022-10-15T04:38:54.087Z,11.55
2022-10-15T04:39:16.552Z,10.27
2022-10-15T04:39:38.947Z,10.38
2022-10-15T04:40:01.169Z,10.32
2022-10-15T04:40:23.515Z,53.78
2022-10-15T04:40:47.629Z,56.70
2022-10-15T04:41:15.761Z,24.60
2022-10-15T04:41:44.240Z,36.30
2022-10-15T04:42:06.306Z,43.25
2022-10-15T04:42:31.806Z,25.75
2022-10-15T04:42:54.050Z,34.28
2022-10-15T04:43:16.015Z,86.55
2022-10-15T04:43:39.356Z,84.72
2022-10-15T04:44:01.614Z,58.85
2022-10-15T04:44:29.942Z,41.58
2022-10-15T04:44:56.165Z,13.55
2022-10-15T04:45:19.442Z,14.60
2022-10-15T04:45:41.327Z,44.40
2022-10-15T04:46:06.012Z,39.00
2022-10-15T04:46:29.302Z,28.70
2022-10-15T04:46:53.738Z,30.48
2022-10-15T04:47:21.432Z,17.02
2022-10-15T04:47:43.704Z,21.70
2022-10-15T04:48:05.882Z,36.70
2022-10-15T04:48:34.417Z,43.15
2022-10-15T04:48:59.249Z,22.65
2022-10-15T04:49:25.122Z,14.60
2022-10-15T04:49:47.888Z,10.93
2022-10-15T04:50:14.676Z,20.73
2022-10-15T04:50:41.694Z,44.63
2022-10-15T04:51:13.216Z,23.02
2022-10-15T04:51:38.365Z,29.67
2022-10-15T04:52:02.570Z,19.25
2022-10-15T04:52:24.580Z,12.10
2022-10-15T04:52:48.632Z,13.57
2022-10-15T04:53:10.624Z,10.85
2022-10-15T04:53:33.178Z,10.30
2022-10-15T04:53:55.886Z,10.55
2022-10-15T04:54:20.877Z,10.70
2022-10-15T04:54:43.111Z,10.05
2022-10-15T04:55:08.584Z,10.02
2022-10-15T04:55:36.396Z,10.48
2022-10-15T04:56:08.535Z,10.45
2022-10-15T04:56:30.595Z,9.38
2022-10-15T04:56:54.709Z,11.15
2022-10-15T04:57:19.543Z,10.65
2022-10-15T04:57:44.200Z,9.73
2022-10-15T04:58:12.003Z,13.65
2022-10-15T04:58:35.099Z,12.10
2022-10-15T04:58:57.081Z,9.85
2022-10-15T04:59:18.958Z,10.02
2022-10-15T04:59:41.555Z,11.23
2022-10-15T05:00:04.243Z,12.43
2022-10-15T05:00:26.337Z,13.43
2022-10-15T05:00:49.112Z,12.43
2022-10-15T05:01:17.092Z,10.98
2022-10-15T05:01:38.864Z,10.25
2022-10-15T05:02:01.053Z,13.15
2022-10-15T05:02:23.897Z,15.32
2022-10-15T05:02:50.873Z,10.85
2022-10-15T05:03:12.756Z,11.82
2022-10-15T05:03:40.998Z,13.85
2022-10-15T05:04:05.892Z,11.75
2022-10-15T05:04:30.524Z,10.20
2022-10-15T05:04:52.453Z,10.80
2022-10-15T05:05:17.518Z,10.68
2022-10-15T05:05:40.630Z,11.35
2022-10-15T05:06:27.137Z,10.85
2022-10-15T05:06:50.334Z,10.02
2022-10-15T05:07:24.481Z,10.52
2022-10-15T05:07:47.689Z,10.50
2022-10-15T05:08:14.738Z,10.80
2022-10-15T05:08:42.305Z,11.18
2022-10-15T05:09:05.952Z,10.18
2022-10-15T05:09:27.972Z,10.63
2022-10-15T05:09:49.852Z,10.63
2022-10-15T05:10:15.206Z,10.15
2022-10-15T05:10:39.290Z,9.73
2022-10-15T05:11:06.939Z,10.55
2022-10-15T05:11:31.357Z,10.15
2022-10-15T05:11:53.615Z,9.38
2022-10-15T05:12:20.816Z,9.95
2022-10-15T05:12:54.275Z,11.13
2022-10-15T05:13:19.090Z,10.40
2022-10-15T05:13:49.092Z,11.20
2022-10-15T05:14:11.008Z,12.18
2022-10-15T05:14:36.141Z,12.35
2022-10-15T05:14:57.975Z,12.02
2022-10-15T05:15:26.815Z,10.82
2022-10-15T05:15:48.716Z,11.50
2022-10-15T05:16:11.291Z,13.32
2022-10-15T05:16:35.918Z,13.60
2022-10-15T05:16:57.943Z,11.07
2022-10-15T05:17:20.498Z,12.10
2022-10-15T05:17:47.086Z,17.15
2022-10-15T05:18:09.373Z,11.40
2022-10-15T05:18:31.498Z,10.30
2022-10-15T05:19:02.279Z,10.35
2022-10-15T05:19:24.430Z,11.95
2022-10-15T05:19:47.136Z,12.02
2022-10-15T05:20:11.853Z,11.63
2022-10-15T05:20:35.811Z,11.35
2022-10-15T05:21:06.363Z,10.88
2022-10-15T05:21:28.916Z,10.45
2022-10-15T05:21:52.618Z,10.18
2022-10-15T05:22:17.688Z,10.05
2022-10-15T05:22:40.100Z,10.25
2022-10-15T05:23:06.470Z,10.25
2022-10-15T05:23:28.310Z,9.73
2022-10-15T05:23:50.584Z,10.13
2022-10-15T05:24:22.575Z,10.85
2022-10-15T05:24:49.831Z,10.13
2022-10-15T05:25:11.639Z,10.45
2022-10-15T05:25:39.378Z,10.18
2022-10-15T05:26:10.505Z,10.13
2022-10-15T05:26:35.342Z,10.25
2022-10-15T05:27:02.771Z,10.30
2022-10-15T05:27:25.099Z,11.23
2022-10-15T05:27:46.948Z,11.02
2022-10-15T05:28:14.398Z,10.80
2022-10-15T05:28:36.838Z,10.35
2022-10-15T05:29:02.780Z,10.23
2022-10-15T05:29:24.682Z,9.90
2022-10-15T05:29:48.959Z,10.00
2022-10-15T05:30:11.585Z,9.93
2022-10-15T05:30:38.735Z,10.27
2022-10-15T05:31:18.653Z,10.18
2022-10-15T05:31:43.749Z,10.63
2022-10-15T05:32:06.190Z,10.43
2022-10-15T05:32:28.780Z,9.80
2022-10-15T05:32:54.045Z,9.82
2022-10-15T05:33:16.765Z,10.02
2022-10-15T05:33:39.234Z,10.30
2022-10-15T05:34:08.800Z,10.38
2022-10-15T05:34:34.365Z,10.20
2022-10-15T05:34:58.649Z,10.48
2022-10-15T05:35:26.540Z,10.30
2022-10-15T05:35:52.562Z,10.15
2022-10-15T05:36:17.402Z,10.30
2022-10-15T05:36:39.388Z,10.32
2022-10-15T05:37:13.096Z,10.85
2022-10-15T05:37:36.912Z,10.02
2022-10-15T05:37:59.576Z,10.18
2022-10-15T05:38:21.734Z,10.38
2022-10-15T05:38:50.336Z,10.38
2022-10-15T05:39:12.653Z,10.70
2022-10-15T05:39:35.433Z,10.48
2022-10-15T05:39:57.267Z,10.48
2022-10-15T05:40:22.160Z,9.90
2022-10-15T05:41:01.638Z,9.93
2022-10-15T05:41:23.928Z,10.13
2022-10-15T05:41:46.248Z,10.30